createdAt,value
2023-10-06T00:01:48.597Z,22.21
2023-10-06T00:04:17.843Z,22.19
2023-10-06T00:06:48.949Z,22.24
2023-10-06T00:09:20.082Z,22.06
2023-10-06T00:11:46.960Z,21.57
2023-10-06T00:14:13.885Z,21.99
2023-10-06T00:16:48.776Z,22.15
2023-10-06T00:19:17.015Z,22.11
2023-10-06T00:21:46.661Z,22.19
2023-10-06T00:24:13.500Z,22.30
2023-10-06T00:26:40.291Z,22.28
2023-10-06T00:29:14.950Z,22.21
2023-10-06T00:31:44.650Z,21.93
2023-10-06T00:34:14.478Z,21.90
2023-10-06T00:36:49.877Z,21.93
2023-10-06T00:39:17.444Z,21.95
2023-10-06T00:41:44.432Z,22.09
2023-10-06T00:44:11.254Z,22.19
2023-10-06T00:46:51.238Z,21.86
2023-10-06T00:49:25.320Z,21.96
2023-10-06T00:51:53.801Z,21.91
2023-10-06T00:54:21.574Z,22.01
2023-10-06T00:56:48.497Z,22.00
2023-10-06T00:59:19.853Z,22.12
2023-10-06T01:01:46.776Z,22.14
2023-10-06T01:04:13.583Z,22.22
2023-10-06T01:06:40.461Z,22.15
2023-10-06T01:09:09.787Z,22.01
2023-10-06T01:11:50.469Z,21.84
2023-10-06T01:14:24.800Z,21.99
2023-10-06T01:16:52.029Z,21.99
2023-10-06T01:19:19.224Z,21.98
2023-10-06T01:21:53.041Z,21.71
2023-10-06T01:24:26.234Z,21.59
2023-10-06T01:27:04.846Z,21.47
2023-10-06T01:29:35.134Z,21.79
2023-10-06T01:32:04.115Z,21.87
2023-10-06T01:34:37.329Z,21.96
2023-10-06T01:37:04.369Z,22.00
2023-10-06T01:39:32.759Z,21.76
2023-10-06T01:41:59.729Z,21.79
2023-10-06T01:44:26.748Z,21.94
2023-10-06T01:47:02.025Z,22.02
2023-10-06T01:49:29.480Z,22.14
2023-10-06T01:52:08.791Z,22.16
2023-10-06T01:54:36.576Z,21.74
2023-10-06T01:57:07.245Z,21.34
2023-10-06T01:59:34.472Z,20.96
2023-10-06T02:02:01.296Z,21.11
2023-10-06T02:04:28.218Z,21.18
2023-10-06T02:06:55.069Z,20.85
2023-10-06T02:09:30.152Z,20.25
2023-10-06T02:11:57.602Z,20.11
2023-10-06T02:14:24.456Z,19.95
2023-10-06T02:16:51.297Z,20.04
2023-10-06T02:19:25.190Z,19.73
2023-10-06T02:21:52.805Z,19.68
2023-10-06T02:24:19.602Z,19.66
2023-10-06T02:26:46.542Z,19.63
2023-10-06T02:29:13.397Z,19.64
2023-10-06T02:31:40.742Z,19.84
2023-10-06T02:34:15.906Z,20.26
2023-10-06T02:36:50.941Z,20.69
2023-10-06T02:39:17.811Z,20.31
2023-10-06T02:41:48.039Z,20.40
2023-10-06T02:44:22.979Z,20.87
2023-10-06T02:46:57.627Z,20.16
2023-10-06T02:49:24.436Z,20.59
2023-10-06T02:51:51.673Z,20.44
2023-10-06T02:54:18.488Z,20.97
2023-10-06T02:56:45.838Z,21.02
2023-10-06T02:59:12.667Z,21.03
2023-10-06T03:01:39.805Z,20.93
2023-10-06T03:04:06.732Z,21.00
2023-10-06T03:06:33.578Z,20.96
2023-10-06T03:09:00.422Z,20.77
2023-10-06T03:11:32.447Z,20.94
2023-10-06T03:13:59.278Z,21.13
2023-10-06T03:16:26.192Z,20.89
2023-10-06T03:19:02.336Z,21.04
2023-10-06T03:21:34.294Z,21.00
2023-10-06T03:24:10.579Z,21.03
2023-10-06T03:26:45.267Z,21.12
2023-10-06T03:29:12.162Z,21.05
2023-10-06T03:31:39.029Z,21.11
2023-10-06T03:34:05.830Z,21.07
2023-10-06T03:36:42.411Z,21.07
2023-10-06T03:39:17.083Z,21.03
2023-10-06T03:41:45.174Z,21.16
2023-10-06T03:44:12.096Z,21.06
2023-10-06T03:46:39.078Z,21.22
2023-10-06T03:49:11.686Z,20.57
2023-10-06T03:51:38.755Z,20.90
2023-10-06T03:54:06.291Z,20.87
2023-10-06T03:56:33.356Z,20.47
2023-10-06T03:59:00.417Z,20.64
2023-10-06T04:01:30.656Z,20.79
2023-10-06T04:04:02.306Z,20.74
2023-10-06T04:06:29.147Z,20.35
2023-10-06T04:08:56.092Z,20.77
2023-10-06T04:11:22.972Z,20.96
2023-10-06T04:13:54.450Z,20.93
2023-10-06T04:16:22.380Z,20.42
2023-10-06T04:18:49.794Z,20.28
2023-10-06T04:21:21.893Z,20.75
2023-10-06T04:23:53.509Z,20.77
2023-10-06T04:26:20.365Z,20.88
2023-10-06T04:28:47.228Z,21.04
2023-10-06T04:31:14.173Z,20.79
2023-10-06T04:33:44.553Z,20.93
2023-10-06T04:36:11.473Z,21.04
2023-10-06T04:38:41.892Z,20.82
2023-10-06T04:41:14.928Z,20.83
2023-10-06T04:43:42.241Z,20.97
2023-10-06T04:46:09.442Z,21.05
2023-10-06T04:48:44.100Z,21.10
2023-10-06T04:51:11.143Z,21.12
2023-10-06T04:53:38.110Z,21.33
2023-10-06T04:56:08.287Z,20.77
2023-10-06T04:58:35.706Z,20.67
2023-10-06T05:01:02.776Z,20.96
2023-10-06T05:03:36.932Z,21.05
2023-10-06T05:06:19.997Z,20.95
2023-10-06T05:08:47.698Z,20.59
2023-10-06T05:11:19.070Z,20.63
2023-10-06T05:13:48.161Z,20.75
2023-10-06T05:16:15.061Z,20.45
2023-10-06T05:18:42.056Z,20.30
2023-10-06T05:21:08.848Z,20.17
2023-10-06T05:23:38.751Z,20.30
2023-10-06T05:26:05.583Z,19.69
2023-10-06T05:28:35.390Z,20.30
2023-10-06T05:31:03.075Z,20.43
2023-10-06T05:33:29.926Z,20.05
2023-10-06T05:35:57.101Z,19.63
2023-10-06T05:38:24.007Z,19.46
2023-10-06T05:40:58.680Z,19.37
2023-10-06T05:43:35.554Z,20.16
2023-10-06T05:46:06.121Z,19.51
2023-10-06T05:48:35.836Z,19.34
2023-10-06T05:51:05.196Z,19.23
2023-10-06T05:53:33.010Z,19.23
2023-10-06T05:56:04.721Z,19.24
2023-10-06T05:58:31.578Z,19.15
2023-10-06T06:00:58.495Z,19.43
2023-10-06T06:03:25.580Z,19.51
2023-10-06T06:05:53.716Z,20.12
2023-10-06T06:08:27.171Z,19.75
2023-10-06T06:10:54.008Z,19.47
2023-10-06T06:13:23.398Z,19.26
2023-10-06T06:15:50.450Z,19.25
2023-10-06T06:18:17.327Z,19.51
2023-10-06T06:20:45.137Z,19.15
2023-10-06T06:23:13.705Z,19.54
2023-10-06T06:25:41.793Z,19.93
2023-10-06T06:28:11.263Z,20.03
2023-10-06T06:30:38.138Z,19.74
2023-10-06T06:33:09.402Z,20.53
2023-10-06T06:35:37.304Z,21.27
2023-10-06T06:38:14.756Z,21.60
2023-10-06T06:40:42.453Z,21.71
2023-10-06T06:43:25.008Z,21.46
2023-10-06T06:45:53.133Z,20.81
2023-10-06T06:48:19.974Z,20.80
2023-10-06T06:50:51.699Z,21.52
2023-10-06T06:53:23.439Z,21.81
2023-10-06T06:55:53.351Z,21.98
2023-10-06T06:58:22.622Z,21.97
2023-10-06T07:00:51.941Z,22.07
2023-10-06T07:03:18.834Z,22.31
2023-10-06T07:05:49.165Z,22.30
2023-10-06T07:08:23.836Z,22.16
2023-10-06T07:10:50.945Z,20.48
2023-10-06T07:13:17.738Z,20.02
2023-10-06T07:15:53.837Z,20.12
2023-10-06T07:18:35.002Z,19.73
2023-10-06T07:21:13.071Z,19.71
2023-10-06T07:23:42.212Z,19.95
2023-10-06T07:26:15.287Z,20.09
2023-10-06T07:28:42.256Z,20.44
2023-10-06T07:31:13.567Z,20.66
2023-10-06T07:33:54.170Z,20.48
2023-10-06T07:36:32.343Z,20.30
2023-10-06T07:39:06.065Z,20.92
2023-10-06T07:41:33.486Z,21.06
2023-10-06T07:44:03.329Z,20.98
2023-10-06T07:46:36.008Z,20.37
2023-10-06T07:49:02.859Z,20.81
2023-10-06T07:51:29.714Z,20.60
2023-10-06T07:54:00.168Z,20.41
2023-10-06T07:56:32.441Z,21.08
2023-10-06T07:58:59.213Z,20.73
2023-10-06T08:01:33.066Z,20.47
2023-10-06T08:03:59.860Z,20.70
2023-10-06T08:06:27.085Z,21.72
2023-10-06T08:08:53.908Z,21.93
2023-10-06T08:11:22.790Z,21.90
2023-10-06T08:13:54.327Z,21.89
2023-10-06T08:16:23.511Z,21.93
2023-10-06T08:18:50.777Z,21.79
2023-10-06T08:21:17.609Z,22.07
2023-10-06T08:23:44.503Z,22.29
2023-10-06T08:26:11.372Z,22.33
2023-10-06T08:28:38.285Z,22.21
2023-10-06T08:31:05.528Z,21.44
2023-10-06T08:33:33.207Z,21.67
2023-10-06T08:36:03.339Z,22.29
2023-10-06T08:38:30.489Z,22.06
2023-10-06T08:41:05.811Z,21.72
2023-10-06T08:43:35.120Z,22.06
2023-10-06T08:46:02.771Z,22.04
2023-10-06T08:48:37.637Z,22.37
2023-10-06T08:51:10.341Z,22.12
2023-10-06T08:53:37.964Z,22.28
2023-10-06T08:56:14.367Z,22.08
2023-10-06T08:58:47.400Z,22.26
2023-10-06T09:01:20.199Z,21.54
2023-10-06T09:03:48.155Z,21.31
2023-10-06T09:06:15.148Z,21.34
2023-10-06T09:08:44.303Z,21.58
2023-10-06T09:11:11.408Z,21.97
2023-10-06T09:13:38.443Z,22.38
2023-10-06T09:16:06.873Z,21.99
2023-10-06T09:18:34.106Z,22.10
2023-10-06T09:21:21.401Z,21.86
2023-10-06T09:23:49.275Z,22.00
2023-10-06T09:26:31.314Z,22.52
2023-10-06T09:29:07.325Z,22.48
2023-10-06T09:31:39.785Z,22.07
2023-10-06T09:34:07.192Z,22.06
2023-10-06T09:36:43.580Z,22.43
2023-10-06T09:39:10.886Z,22.28
2023-10-06T09:41:38.037Z,22.22
2023-10-06T09:44:07.351Z,22.39
2023-10-06T09:46:34.896Z,22.29
2023-10-06T09:49:05.299Z,22.16
2023-10-06T09:51:34.279Z,22.18
2023-10-06T09:54:01.656Z,22.72
2023-10-06T09:56:32.757Z,22.37
2023-10-06T09:59:00.970Z,22.90
2023-10-06T10:01:28.808Z,22.51
2023-10-06T10:03:57.974Z,22.82
2023-10-06T10:06:24.875Z,22.50
2023-10-06T10:08:51.746Z,22.59
2023-10-06T10:11:31.066Z,23.01
2023-10-06T10:14:42.946Z,23.29
2023-10-06T10:17:33.150Z,23.11
2023-10-06T10:20:03.741Z,22.97
2023-10-06T10:22:33.983Z,23.01
2023-10-06T10:25:23.950Z,23.28
2023-10-06T10:28:13.469Z,23.36
2023-10-06T10:31:03.610Z,23.43
2023-10-06T10:33:38.593Z,23.23
2023-10-06T10:36:14.511Z,23.42
2023-10-06T10:38:42.270Z,23.72
2023-10-06T10:41:10.808Z,23.67
2023-10-06T10:43:47.813Z,23.19
2023-10-06T10:46:45.764Z,23.21
2023-10-06T10:49:24.563Z,23.65
2023-10-06T10:52:06.150Z,23.51
2023-10-06T10:54:38.313Z,23.33
2023-10-06T10:57:13.358Z,23.42
2023-10-06T11:00:04.364Z,23.47
2023-10-06T11:03:07.901Z,23.71
2023-10-06T11:05:38.232Z,23.95
2023-10-06T11:08:08.973Z,24.28
2023-10-06T11:10:35.841Z,24.38
2023-10-06T11:13:34.466Z,23.95
2023-10-06T11:16:16.402Z,23.93
2023-10-06T11:18:46.970Z,24.04
2023-10-06T11:21:29.505Z,24.06
2023-10-06T11:24:01.116Z,23.99
2023-10-06T11:26:41.706Z,23.97
2023-10-06T11:29:16.366Z,23.95
2023-10-06T11:31:44.039Z,23.99
2023-10-06T11:34:11.175Z,24.37
2023-10-06T11:36:40.861Z,23.96
2023-10-06T11:39:07.830Z,24.03
2023-10-06T11:41:37.599Z,24.03
2023-10-06T11:44:04.805Z,24.06
2023-10-06T11:46:57.154Z,24.03
2023-10-06T11:49:24.183Z,24.30
2023-10-06T11:51:51.122Z,24.58
2023-10-06T11:54:18.065Z,23.98
2023-10-06T11:56:52.010Z,24.23
2023-10-06T11:59:22.606Z,24.37
2023-10-06T12:01:50.271Z,24.58
2023-10-06T12:04:32.852Z,24.50
2023-10-06T12:06:59.919Z,24.23
2023-10-06T12:09:28.561Z,24.43
2023-10-06T12:11:55.744Z,24.29
2023-10-06T12:14:26.173Z,24.51
2023-10-06T12:16:55.934Z,24.55
2023-10-06T12:19:33.395Z,24.48
2023-10-06T12:22:01.262Z,24.67
2023-10-06T12:24:28.183Z,24.80
2023-10-06T12:26:55.123Z,24.76
2023-10-06T12:29:23.569Z,24.34
2023-10-06T12:31:50.434Z,24.37
2023-10-06T12:34:22.942Z,24.35
2023-10-06T12:36:54.959Z,24.61
2023-10-06T12:39:21.833Z,24.74
2023-10-06T12:41:48.769Z,24.48
2023-10-06T12:44:15.634Z,24.38
2023-10-06T12:46:42.821Z,24.44
2023-10-06T12:49:10.111Z,24.48
2023-10-06T12:51:46.876Z,24.51
2023-10-06T12:54:13.729Z,24.40
2023-10-06T12:56:40.645Z,24.39
2023-10-06T12:59:07.616Z,24.51
2023-10-06T13:01:41.726Z,24.50
2023-10-06T13:04:11.507Z,24.35
2023-10-06T13:06:39.354Z,24.80
2023-10-06T13:09:06.274Z,24.57
2023-10-06T13:11:33.176Z,24.30
2023-10-06T13:14:00.191Z,24.61
2023-10-06T13:16:31.821Z,24.74
2023-10-06T13:18:59.323Z,24.44
2023-10-06T13:21:26.199Z,24.46
2023-10-06T13:23:54.654Z,24.46
2023-10-06T13:26:36.172Z,24.65
2023-10-06T13:29:11.090Z,24.40
2023-10-06T13:31:38.018Z,24.63
2023-10-06T13:34:05.209Z,24.62
2023-10-06T13:36:36.684Z,24.65
2023-10-06T13:39:03.556Z,24.39
2023-10-06T13:41:30.475Z,24.76
2023-10-06T13:43:57.314Z,24.64
2023-10-06T13:46:32.335Z,24.44
2023-10-06T13:48:59.236Z,24.46
2023-10-06T13:51:27.659Z,24.59
2023-10-06T13:53:57.558Z,24.40
2023-10-06T13:56:24.777Z,24.64
2023-10-06T13:58:55.082Z,24.68
2023-10-06T14:01:21.881Z,24.65
2023-10-06T14:03:48.849Z,24.56
2023-10-06T14:06:15.790Z,24.67
2023-10-06T14:08:42.631Z,24.64
2023-10-06T14:11:10.647Z,24.74
2023-10-06T14:13:37.511Z,24.73
2023-10-06T14:16:04.590Z,24.97
2023-10-06T14:18:31.527Z,24.95
2023-10-06T14:20:59.100Z,24.70
2023-10-06T14:23:26.960Z,24.82
2023-10-06T14:25:54.256Z,24.69
2023-10-06T14:28:26.067Z,24.58
2023-10-06T14:30:54.032Z,24.25
2023-10-06T14:33:21.699Z,24.52
2023-10-06T14:35:54.935Z,24.53
2023-10-06T14:38:23.498Z,24.55
2023-10-06T14:41:01.897Z,24.70
2023-10-06T14:43:30.000Z,24.54
2023-10-06T14:45:57.083Z,24.61
2023-10-06T14:48:24.142Z,24.55
2023-10-06T14:51:03.412Z,24.62
2023-10-06T14:53:31.583Z,24.77
2023-10-06T14:55:58.837Z,24.84
2023-10-06T14:58:37.968Z,24.63
2023-10-06T15:01:09.872Z,24.63
2023-10-06T15:03:47.444Z,24.67
2023-10-06T15:06:26.834Z,24.54
2023-10-06T15:09:04.319Z,24.45
2023-10-06T15:11:32.004Z,24.83
2023-10-06T15:14:01.483Z,24.70
2023-10-06T15:16:28.468Z,24.58
2023-10-06T15:18:55.352Z,24.88
2023-10-06T15:21:22.530Z,24.61
2023-10-06T15:23:52.064Z,24.74
2023-10-06T15:26:21.440Z,24.69
2023-10-06T15:28:57.136Z,24.59
2023-10-06T15:31:33.022Z,24.70
2023-10-06T15:34:09.712Z,25.01
2023-10-06T15:36:48.403Z,24.62
2023-10-06T15:39:16.397Z,24.62
2023-10-06T15:41:44.620Z,24.66
2023-10-06T15:44:17.722Z,24.63
2023-10-06T15:46:52.416Z,24.43
2023-10-06T15:49:20.840Z,24.39
2023-10-06T15:51:48.600Z,24.57
2023-10-06T15:54:16.172Z,24.83
2023-10-06T15:56:54.203Z,24.95
2023-10-06T15:59:21.554Z,24.43
2023-10-06T16:01:53.904Z,24.51
2023-10-06T16:04:20.796Z,24.53
2023-10-06T16:06:47.859Z,24.68
2023-10-06T16:09:18.324Z,24.57
2023-10-06T16:11:46.066Z,24.31
2023-10-06T16:14:13.077Z,24.46
2023-10-06T16:16:47.348Z,24.20
2023-10-06T16:19:15.310Z,24.15
2023-10-06T16:21:52.813Z,24.53
2023-10-06T16:24:20.277Z,24.14
2023-10-06T16:26:51.752Z,24.07
2023-10-06T16:29:19.043Z,24.14
2023-10-06T16:31:46.061Z,24.47
2023-10-06T16:34:17.642Z,24.05
2023-10-06T16:36:50.513Z,24.06
2023-10-06T16:39:18.025Z,23.93
2023-10-06T16:41:45.485Z,23.99
2023-10-06T16:44:12.617Z,23.80
2023-10-06T16:46:39.533Z,23.79
2023-10-06T16:49:07.787Z,23.73
2023-10-06T16:51:34.791Z,23.77
2023-10-06T16:54:01.600Z,23.95
2023-10-06T16:56:29.614Z,24.29
2023-10-06T16:58:56.498Z,24.35
2023-10-06T17:01:23.403Z,24.04
2023-10-06T17:03:52.536Z,24.30
2023-10-06T17:06:32.149Z,24.45
2023-10-06T17:09:00.917Z,24.36
2023-10-06T17:11:28.028Z,24.41
2023-10-06T17:14:02.361Z,24.39
2023-10-06T17:16:29.282Z,23.88
2023-10-06T17:18:56.290Z,23.65
2023-10-06T17:21:23.459Z,23.97
2023-10-06T17:23:53.593Z,23.84
2023-10-06T17:26:20.553Z,23.53
2023-10-06T17:28:54.568Z,23.11
2023-10-06T17:31:21.703Z,23.44
2023-10-06T17:33:49.066Z,23.22
2023-10-06T17:36:25.282Z,23.02
2023-10-06T17:38:52.428Z,23.41
2023-10-06T17:41:22.185Z,23.29
2023-10-06T17:43:49.118Z,23.17
2023-10-06T17:46:17.158Z,22.73
2023-10-06T17:48:50.190Z,22.84
2023-10-06T17:51:23.332Z,22.99
2023-10-06T17:53:51.034Z,22.54
2023-10-06T17:56:18.077Z,22.64
2023-10-06T17:58:46.301Z,22.55
2023-10-06T18:01:16.247Z,22.94
2023-10-06T18:03:51.670Z,22.80
2023-10-06T18:06:28.877Z,22.78
2023-10-06T18:08:56.524Z,22.95
2023-10-06T18:11:23.519Z,23.10
2023-10-06T18:13:50.436Z,23.02
2023-10-06T18:16:17.393Z,23.11
2023-10-06T18:18:47.951Z,23.14
2023-10-06T18:21:14.929Z,23.11
2023-10-06T18:23:44.344Z,22.88
2023-10-06T18:26:15.191Z,22.85
2023-10-06T18:28:42.190Z,22.84
2023-10-06T18:31:09.102Z,22.48
2023-10-06T18:33:36.734Z,22.52
2023-10-06T18:36:03.759Z,22.66
2023-10-06T18:38:30.679Z,22.68
2023-10-06T18:41:00.341Z,22.64
2023-10-06T18:43:32.000Z,22.50
2023-10-06T18:45:59.883Z,22.58
2023-10-06T18:48:27.183Z,22.77
2023-10-06T18:51:00.745Z,22.41
2023-10-06T18:53:27.694Z,22.49
2023-10-06T18:55:54.734Z,22.37
2023-10-06T18:58:30.060Z,22.62
2023-10-06T19:01:00.874Z,22.44
2023-10-06T19:03:27.982Z,22.36
2023-10-06T19:06:04.995Z,22.71
2023-10-06T19:08:35.225Z,22.66
2023-10-06T19:11:09.785Z,22.66
2023-10-06T19:13:36.880Z,22.61
2023-10-06T19:16:03.853Z,22.70
2023-10-06T19:18:36.102Z,22.78
2023-10-06T19:21:07.367Z,22.69
2023-10-06T19:23:36.892Z,22.23
2023-10-06T19:26:04.856Z,21.63
2023-10-06T19:28:31.665Z,22.45
2023-10-06T19:30:59.433Z,22.26
2023-10-06T19:33:26.368Z,22.01
2023-10-06T19:35:59.767Z,22.35
2023-10-06T19:38:27.146Z,22.16
2023-10-06T19:40:54.349Z,21.43
2023-10-06T19:43:21.272Z,21.68
2023-10-06T19:45:53.894Z,22.28
2023-10-06T19:48:20.603Z,22.67
2023-10-06T19:50:47.544Z,22.02
2023-10-06T19:53:16.472Z,22.34
2023-10-06T19:55:44.595Z,22.68
2023-10-06T19:58:14.717Z,22.15
2023-10-06T20:00:42.292Z,22.06
2023-10-06T20:03:11.813Z,22.08
2023-10-06T20:05:39.509Z,22.25
2023-10-06T20:08:09.693Z,21.66
2023-10-06T20:10:37.280Z,21.91
2023-10-06T20:13:07.968Z,21.66
2023-10-06T20:15:40.756Z,21.71
2023-10-06T20:18:07.809Z,21.68
2023-10-06T20:20:34.681Z,22.05
2023-10-06T20:23:02.115Z,22.07
2023-10-06T20:25:28.915Z,22.21
2023-10-06T20:27:55.863Z,21.62
2023-10-06T20:30:27.673Z,21.03
2023-10-06T20:32:57.908Z,20.93
2023-10-06T20:35:25.961Z,21.65
2023-10-06T20:37:52.923Z,21.51
2023-10-06T20:40:23.017Z,21.16
2023-10-06T20:42:49.812Z,20.92
2023-10-06T20:45:16.874Z,21.31
2023-10-06T20:47:46.784Z,21.80
2023-10-06T20:50:16.300Z,21.60
2023-10-06T20:52:44.348Z,21.53
2023-10-06T20:55:14.521Z,21.67
2023-10-06T20:57:48.475Z,21.29
2023-10-06T21:00:17.513Z,20.76
2023-10-06T21:02:44.417Z,20.91
2023-10-06T21:05:15.588Z,20.81
2023-10-06T21:07:43.181Z,21.13
2023-10-06T21:10:16.426Z,21.62
2023-10-06T21:12:43.789Z,21.54
2023-10-06T21:15:18.859Z,20.88
2023-10-06T21:17:54.790Z,21.72
2023-10-06T21:20:21.695Z,20.97
2023-10-06T21:22:48.499Z,20.60
2023-10-06T21:25:15.337Z,21.02
2023-10-06T21:27:42.828Z,20.57
2023-10-06T21:30:10.231Z,20.53
2023-10-06T21:32:37.029Z,20.44
2023-10-06T21:35:04.049Z,21.12
2023-10-06T21:37:30.946Z,21.49
2023-10-06T21:39:57.739Z,21.51
2023-10-06T21:42:24.569Z,20.60
2023-10-06T21:44:54.218Z,20.44
2023-10-06T21:47:24.041Z,20.70
2023-10-06T21:49:56.453Z,20.91
2023-10-06T21:52:23.449Z,21.20
2023-10-06T21:54:50.948Z,21.01
2023-10-06T21:57:20.546Z,20.97
2023-10-06T21:59:49.560Z,21.34
2023-10-06T22:02:19.239Z,21.13
2023-10-06T22:04:47.677Z,21.10
2023-10-06T22:07:14.511Z,21.32
2023-10-06T22:09:42.561Z,21.14
2023-10-06T22:12:12.217Z,21.32
2023-10-06T22:14:41.501Z,21.39
2023-10-06T22:17:09.441Z,21.46
2023-10-06T22:19:36.450Z,21.36
2023-10-06T22:22:03.682Z,21.58
2023-10-06T22:24:30.514Z,21.55
2023-10-06T22:26:57.668Z,21.66
2023-10-06T22:29:30.162Z,21.27
2023-10-06T22:31:57.027Z,21.06
2023-10-06T22:34:39.969Z,21.11
2023-10-06T22:37:23.606Z,21.06
2023-10-06T22:39:53.785Z,21.27
2023-10-06T22:42:23.812Z,21.46
2023-10-06T22:44:51.500Z,21.08
2023-10-06T22:47:18.336Z,21.10
2023-10-06T22:49:45.304Z,21.08
2023-10-06T22:52:12.095Z,21.15
2023-10-06T22:54:39.003Z,21.04
2023-10-06T22:57:05.873Z,20.87
2023-10-06T22:59:32.869Z,20.92
2023-10-06T23:01:59.919Z,21.03
2023-10-06T23:04:30.791Z,20.98
2023-10-06T23:07:10.956Z,21.06
2023-10-06T23:09:49.110Z,21.01
2023-10-06T23:12:16.255Z,21.09
2023-10-06T23:14:43.063Z,21.17
2023-10-06T23:17:18.609Z,21.36
2023-10-06T23:19:54.551Z,20.85
2023-10-06T23:22:38.518Z,20.71
2023-10-06T23:25:23.258Z,20.82
2023-10-06T23:27:58.391Z,20.81
2023-10-06T23:30:25.173Z,20.96
2023-10-06T23:33:06.809Z,20.69
2023-10-06T23:35:47.515Z,20.76
2023-10-06T23:38:15.314Z,21.06
2023-10-06T23:40:42.123Z,20.86
2023-10-06T23:43:09.685Z,20.63
2023-10-06T23:45:41.871Z,20.62
2023-10-06T23:48:08.864Z,20.69
2023-10-06T23:50:35.786Z,20.80
2023-10-06T23:53:06.510Z,20.50
2023-10-06T23:55:37.580Z,20.77
2023-10-06T23:58:04.623Z,20.49
